sensor_id;sensor_type;location;lat;lon;timestamp;P1;durP1;ratioP1;P2;durP2;ratioP2
23115;SDS011;11727;52.134;5.052;2023-08-06T00:00:18;10.65;;;4.00;;
23115;SDS011;11727;52.134;5.052;2023-08-06T00:02:44;7.13;;;4.03;;
23115;SDS011;11727;52.134;5.052;2023-08-06T00:05:09;7.15;;;4.03;;
23115;SDS011;11727;52.134;5.052;2023-08-06T00:07:35;10.25;;;4.07;;
23115;SDS011;11727;52.134;5.052;2023-08-06T00:10:01;7.65;;;4.28;;
23115;SDS011;11727;52.134;5.052;2023-08-06T00:12:26;5.72;;;3.85;;
23115;SDS011;11727;52.134;5.052;2023-08-06T00:14:52;5.28;;;3.70;;
23115;SDS011;11727;52.134;5.052;2023-08-06T00:17:18;6.53;;;3.83;;
23115;SDS011;11727;52.134;5.052;2023-08-06T00:19:44;6.93;;;3.53;;
23115;SDS011;11727;52.134;5.052;2023-08-06T00:22:09;7.07;;;3.95;;
23115;SDS011;11727;52.134;5.052;2023-08-06T00:24:35;6.28;;;3.95;;
23115;SDS011;11727;52.134;5.052;2023-08-06T00:27:01;9.07;;;4.63;;
23115;SDS011;11727;52.134;5.052;2023-08-06T00:29:27;5.53;;;3.75;;
23115;SDS011;11727;52.134;5.052;2023-08-06T00:31:53;5.80;;;3.60;;
23115;SDS011;11727;52.134;5.052;2023-08-06T00:34:18;6.75;;;3.95;;
23115;SDS011;11727;52.134;5.052;2023-08-06T00:36:44;6.85;;;3.85;;
23115;SDS011;11727;52.134;5.052;2023-08-06T00:39:10;8.43;;;3.78;;
23115;SDS011;11727;52.134;5.052;2023-08-06T00:41:36;7.55;;;4.00;;
23115;SDS011;11727;52.134;5.052;2023-08-06T00:44:01;6.97;;;4.10;;
23115;SDS011;11727;52.134;5.052;2023-08-06T00:46:27;7.63;;;3.72;;
23115;SDS011;11727;52.134;5.052;2023-08-06T00:48:52;7.00;;;3.88;;
23115;SDS011;11727;52.134;5.052;2023-08-06T00:51:19;6.77;;;3.40;;
23115;SDS011;11727;52.134;5.052;2023-08-06T00:53:46;6.45;;;3.67;;
23115;SDS011;11727;52.134;5.052;2023-08-06T00:56:12;7.78;;;3.63;;
23115;SDS011;11727;52.134;5.052;2023-08-06T00:58:39;11.07;;;4.63;;
23115;SDS011;11727;52.134;5.052;2023-08-06T01:01:05;8.48;;;4.05;;
23115;SDS011;11727;52.134;5.052;2023-08-06T01:03:30;6.70;;;4.38;;
23115;SDS011;11727;52.134;5.052;2023-08-06T01:05:56;7.78;;;4.55;;
23115;SDS011;11727;52.134;5.052;2023-08-06T01:13:53;5.85;;;3.33;;
23115;SDS011;11727;52.134;5.052;2023-08-06T01:16:24;6.20;;;3.58;;
23115;SDS011;11727;52.134;5.052;2023-08-06T01:18:50;6.63;;;3.72;;
23115;SDS011;11727;52.134;5.052;2023-08-06T01:21:16;9.85;;;3.97;;
23115;SDS011;11727;52.134;5.052;2023-08-06T01:23:43;8.10;;;4.38;;
23115;SDS011;11727;52.134;5.052;2023-08-06T01:26:17;4.35;;;3.08;;
23115;SDS011;11727;52.134;5.052;2023-08-06T01:29:28;8.68;;;3.90;;
23115;SDS011;11727;52.134;5.052;2023-08-06T01:31:59;5.57;;;3.72;;
23115;SDS011;11727;52.134;5.052;2023-08-06T01:34:27;6.65;;;3.45;;
23115;SDS011;11727;52.134;5.052;2023-08-06T01:36:55;6.95;;;4.03;;
23115;SDS011;11727;52.134;5.052;2023-08-06T01:39:22;6.55;;;3.42;;
23115;SDS011;11727;52.134;5.052;2023-08-06T01:41:48;6.22;;;3.55;;
23115;SDS011;11727;52.134;5.052;2023-08-06T01:44:14;7.03;;;3.80;;
23115;SDS011;11727;52.134;5.052;2023-08-06T01:46:40;7.53;;;3.85;;
23115;SDS011;11727;52.134;5.052;2023-08-06T01:49:06;8.70;;;3.55;;
23115;SDS011;11727;52.134;5.052;2023-08-06T01:51:32;7.28;;;4.25;;
23115;SDS011;11727;52.134;5.052;2023-08-06T01:53:58;6.00;;;4.10;;
23115;SDS011;11727;52.134;5.052;2023-08-06T01:56:23;7.00;;;3.95;;
23115;SDS011;11727;52.134;5.052;2023-08-06T01:58:49;7.93;;;4.20;;
23115;SDS011;11727;52.134;5.052;2023-08-06T02:01:14;9.63;;;3.80;;
23115;SDS011;11727;52.134;5.052;2023-08-06T02:03:40;6.28;;;3.80;;
23115;SDS011;11727;52.134;5.052;2023-08-06T02:06:06;7.63;;;4.20;;
23115;SDS011;11727;52.134;5.052;2023-08-06T02:08:31;9.27;;;4.45;;
23115;SDS011;11727;52.134;5.052;2023-08-06T02:10:57;7.93;;;4.63;;
23115;SDS011;11727;52.134;5.052;2023-08-06T02:13:23;7.15;;;4.13;;
23115;SDS011;11727;52.134;5.052;2023-08-06T02:15:49;7.43;;;4.25;;
23115;SDS011;11727;52.134;5.052;2023-08-06T02:18:14;9.35;;;4.50;;
23115;SDS011;11727;52.134;5.052;2023-08-06T02:20:41;7.40;;;4.72;;
23115;SDS011;11727;52.134;5.052;2023-08-06T02:23:07;8.65;;;4.50;;
23115;SDS011;11727;52.134;5.052;2023-08-06T02:25:33;6.97;;;3.90;;
23115;SDS011;11727;52.134;5.052;2023-08-06T02:27:58;7.55;;;4.43;;
23115;SDS011;11727;52.134;5.052;2023-08-06T02:30:24;10.55;;;4.57;;
23115;SDS011;11727;52.134;5.052;2023-08-06T02:32:50;7.03;;;4.25;;
23115;SDS011;11727;52.134;5.052;2023-08-06T02:35:15;9.30;;;4.70;;
23115;SDS011;11727;52.134;5.052;2023-08-06T02:37:41;9.32;;;4.47;;
23115;SDS011;11727;52.134;5.052;2023-08-06T02:40:07;8.23;;;4.70;;
23115;SDS011;11727;52.134;5.052;2023-08-06T02:42:33;11.18;;;5.32;;
23115;SDS011;11727;52.134;5.052;2023-08-06T02:44:58;10.10;;;5.32;;
23115;SDS011;11727;52.134;5.052;2023-08-06T02:47:24;8.18;;;5.35;;
23115;SDS011;11727;52.134;5.052;2023-08-06T02:49:49;11.52;;;5.40;;
23115;SDS011;11727;52.134;5.052;2023-08-06T02:52:15;8.50;;;5.43;;
23115;SDS011;11727;52.134;5.052;2023-08-06T02:54:41;10.27;;;5.32;;
23115;SDS011;11727;52.134;5.052;2023-08-06T02:57:07;10.25;;;5.80;;
23115;SDS011;11727;52.134;5.052;2023-08-06T02:59:32;11.02;;;5.88;;
23115;SDS011;11727;52.134;5.052;2023-08-06T03:01:58;12.75;;;6.13;;
23115;SDS011;11727;52.134;5.052;2023-08-06T03:04:24;11.43;;;6.05;;
23115;SDS011;11727;52.134;5.052;2023-08-06T03:06:50;15.07;;;6.30;;
23115;SDS011;11727;52.134;5.052;2023-08-06T03:09:16;10.50;;;5.82;;
23115;SDS011;11727;52.134;5.052;2023-08-06T03:11:44;10.90;;;6.13;;
23115;SDS011;11727;52.134;5.052;2023-08-06T03:14:10;14.77;;;6.20;;
23115;SDS011;11727;52.134;5.052;2023-08-06T03:16:35;12.65;;;6.00;;
23115;SDS011;11727;52.134;5.052;2023-08-06T03:19:01;12.32;;;5.68;;
23115;SDS011;11727;52.134;5.052;2023-08-06T03:21:27;12.57;;;6.35;;
23115;SDS011;11727;52.134;5.052;2023-08-06T03:23:53;10.05;;;6.30;;
23115;SDS011;11727;52.134;5.052;2023-08-06T03:26:18;12.13;;;6.10;;
23115;SDS011;11727;52.134;5.052;2023-08-06T03:28:44;10.27;;;6.03;;
23115;SDS011;11727;52.134;5.052;2023-08-06T03:31:09;12.57;;;6.28;;
23115;SDS011;11727;52.134;5.052;2023-08-06T03:33:35;14.20;;;7.20;;
23115;SDS011;11727;52.134;5.052;2023-08-06T03:36:01;13.23;;;7.45;;
23115;SDS011;11727;52.134;5.052;2023-08-06T03:38:27;13.50;;;6.45;;
23115;SDS011;11727;52.134;5.052;2023-08-06T03:40:52;13.20;;;6.80;;
23115;SDS011;11727;52.134;5.052;2023-08-06T03:43:18;12.27;;;6.75;;
23115;SDS011;11727;52.134;5.052;2023-08-06T03:45:44;13.20;;;7.07;;
23115;SDS011;11727;52.134;5.052;2023-08-06T03:48:09;14.50;;;7.20;;
23115;SDS011;11727;52.134;5.052;2023-08-06T03:50:35;13.90;;;7.03;;
23115;SDS011;11727;52.134;5.052;2023-08-06T03:53:01;10.52;;;6.35;;
23115;SDS011;11727;52.134;5.052;2023-08-06T03:55:26;13.38;;;7.78;;
23115;SDS011;11727;52.134;5.052;2023-08-06T03:57:52;14.73;;;7.80;;
23115;SDS011;11727;52.134;5.052;2023-08-06T04:00:18;13.73;;;7.97;;
23115;SDS011;11727;52.134;5.052;2023-08-06T04:02:51;17.30;;;8.32;;
23115;SDS011;11727;52.134;5.052;2023-08-06T04:05:19;15.80;;;8.35;;
23115;SDS011;11727;52.134;5.052;2023-08-06T04:07:44;17.75;;;8.40;;
23115;SDS011;11727;52.134;5.052;2023-08-06T04:10:10;15.18;;;8.25;;
23115;SDS011;11727;52.134;5.052;2023-08-06T04:12:35;17.83;;;8.70;;
23115;SDS011;11727;52.134;5.052;2023-08-06T04:15:03;11.50;;;6.95;;
23115;SDS011;11727;52.134;5.052;2023-08-06T04:17:29;13.60;;;7.93;;
23115;SDS011;11727;52.134;5.052;2023-08-06T04:19:54;12.43;;;7.22;;
23115;SDS011;11727;52.134;5.052;2023-08-06T04:22:25;13.48;;;6.57;;
23115;SDS011;11727;52.134;5.052;2023-08-06T04:24:51;11.40;;;6.10;;
23115;SDS011;11727;52.134;5.052;2023-08-06T04:27:19;12.18;;;6.70;;
23115;SDS011;11727;52.134;5.052;2023-08-06T04:29:45;8.38;;;5.25;;
23115;SDS011;11727;52.134;5.052;2023-08-06T04:32:11;6.28;;;3.83;;
23115;SDS011;11727;52.134;5.052;2023-08-06T04:34:50;8.80;;;4.03;;
23115;SDS011;11727;52.134;5.052;2023-08-06T04:37:25;9.38;;;5.07;;
23115;SDS011;11727;52.134;5.052;2023-08-06T04:39:53;11.82;;;6.13;;
23115;SDS011;11727;52.134;5.052;2023-08-06T04:42:19;9.43;;;5.68;;
23115;SDS011;11727;52.134;5.052;2023-08-06T04:44:50;11.98;;;5.65;;
23115;SDS011;11727;52.134;5.052;2023-08-06T04:47:16;14.65;;;6.72;;
23115;SDS011;11727;52.134;5.052;2023-08-06T04:49:42;9.80;;;5.30;;
23115;SDS011;11727;52.134;5.052;2023-08-06T04:52:10;8.80;;;4.55;;
23115;SDS011;11727;52.134;5.052;2023-08-06T04:54:35;8.77;;;5.53;;
23115;SDS011;11727;52.134;5.052;2023-08-06T04:57:14;8.07;;;4.53;;
23115;SDS011;11727;52.134;5.052;2023-08-06T04:59:44;7.70;;;4.07;;
23115;SDS011;11727;52.134;5.052;2023-08-06T05:02:10;6.90;;;3.65;;
23115;SDS011;11727;52.134;5.052;2023-08-06T05:04:39;7.63;;;3.25;;
23115;SDS011;11727;52.134;5.052;2023-08-06T05:07:07;4.03;;;2.42;;
23115;SDS011;11727;52.134;5.052;2023-08-06T05:09:34;4.70;;;2.70;;
23115;SDS011;11727;52.134;5.052;2023-08-06T05:14:26;3.33;;;1.70;;
23115;SDS011;11727;52.134;5.052;2023-08-06T05:16:57;3.03;;;1.55;;
23115;SDS011;11727;52.134;5.052;2023-08-06T05:19:27;2.28;;;1.42;;
23115;SDS011;11727;52.134;5.052;2023-08-06T05:21:52;2.28;;;1.42;;
23115;SDS011;11727;52.134;5.052;2023-08-06T05:24:18;2.95;;;1.15;;
23115;SDS011;11727;52.134;5.052;2023-08-06T05:26:44;2.33;;;1.25;;
23115;SDS011;11727;52.134;5.052;2023-08-06T05:29:12;3.53;;;1.08;;
23115;SDS011;11727;52.134;5.052;2023-08-06T05:31:40;2.92;;;1.10;;
23115;SDS011;11727;52.134;5.052;2023-08-06T05:34:06;1.75;;;0.85;;
23115;SDS011;11727;52.134;5.052;2023-08-06T05:36:32;1.80;;;0.90;;
23115;SDS011;11727;52.134;5.052;2023-08-06T05:39:00;2.92;;;1.02;;
23115;SDS011;11727;52.134;5.052;2023-08-06T05:41:28;3.15;;;1.00;;
23115;SDS011;11727;52.134;5.052;2023-08-06T05:43:54;2.13;;;1.13;;
23115;SDS011;11727;52.134;5.052;2023-08-06T05:46:19;2.08;;;1.08;;
23115;SDS011;11727;52.134;5.052;2023-08-06T05:48:48;2.38;;;1.15;;
23115;SDS011;11727;52.134;5.052;2023-08-06T05:51:14;1.80;;;1.15;;
23115;SDS011;11727;52.134;5.052;2023-08-06T05:53:58;2.42;;;1.40;;
23115;SDS011;11727;52.134;5.052;2023-08-06T05:56:26;2.15;;;1.25;;
23115;SDS011;11727;52.134;5.052;2023-08-06T05:58:52;1.75;;;1.10;;
23115;SDS011;11727;52.134;5.052;2023-08-06T06:01:18;1.10;;;0.70;;
23115;SDS011;11727;52.134;5.052;2023-08-06T06:03:44;2.50;;;0.82;;
23115;SDS011;11727;52.134;5.052;2023-08-06T06:06:10;2.10;;;1.30;;
23115;SDS011;11727;52.134;5.052;2023-08-06T06:08:35;1.85;;;1.05;;
23115;SDS011;11727;52.134;5.052;2023-08-06T06:11:01;2.00;;;1.27;;
23115;SDS011;11727;52.134;5.052;2023-08-06T06:13:26;2.55;;;1.17;;
23115;SDS011;11727;52.134;5.052;2023-08-06T06:15:55;6.30;;;2.20;;
23115;SDS011;11727;52.134;5.052;2023-08-06T06:18:21;3.22;;;1.73;;
23115;SDS011;11727;52.134;5.052;2023-08-06T06:20:47;4.40;;;1.45;;
23115;SDS011;11727;52.134;5.052;2023-08-06T06:23:13;3.13;;;1.50;;
23115;SDS011;11727;52.134;5.052;2023-08-06T06:25:46;2.58;;;1.60;;
23115;SDS011;11727;52.134;5.052;2023-08-06T06:28:13;2.78;;;1.48;;
23115;SDS011;11727;52.134;5.052;2023-08-06T06:30:38;4.13;;;1.67;;
23115;SDS011;11727;52.134;5.052;2023-08-06T06:33:06;2.92;;;1.15;;
23115;SDS011;11727;52.134;5.052;2023-08-06T06:38:01;3.03;;;1.70;;
23115;SDS011;11727;52.134;5.052;2023-08-06T06:40:29;3.55;;;1.90;;
23115;SDS011;11727;52.134;5.052;2023-08-06T06:42:55;3.33;;;2.05;;
23115;SDS011;11727;52.134;5.052;2023-08-06T06:45:20;6.20;;;2.65;;
23115;SDS011;11727;52.134;5.052;2023-08-06T06:47:46;4.18;;;2.67;;
23115;SDS011;11727;52.134;5.052;2023-08-06T06:50:11;4.47;;;2.75;;
23115;SDS011;11727;52.134;5.052;2023-08-06T06:52:37;4.90;;;2.70;;
23115;SDS011;11727;52.134;5.052;2023-08-06T06:55:03;5.78;;;2.90;;
23115;SDS011;11727;52.134;5.052;2023-08-06T06:57:29;4.70;;;2.83;;
23115;SDS011;11727;52.134;5.052;2023-08-06T06:59:54;5.82;;;3.08;;
23115;SDS011;11727;52.134;5.052;2023-08-06T07:02:20;6.55;;;3.13;;
23115;SDS011;11727;52.134;5.052;2023-08-06T07:04:46;4.85;;;3.10;;
23115;SDS011;11727;52.134;5.052;2023-08-06T07:07:11;5.38;;;3.38;;
23115;SDS011;11727;52.134;5.052;2023-08-06T07:09:37;5.60;;;3.30;;
23115;SDS011;11727;52.134;5.052;2023-08-06T07:12:03;6.63;;;3.10;;
23115;SDS011;11727;52.134;5.052;2023-08-06T07:14:29;5.32;;;3.03;;
23115;SDS011;11727;52.134;5.052;2023-08-06T07:16:54;5.30;;;3.38;;
23115;SDS011;11727;52.134;5.052;2023-08-06T07:19:20;5.60;;;3.10;;
23115;SDS011;11727;52.134;5.052;2023-08-06T07:21:46;6.20;;;2.75;;
23115;SDS011;11727;52.134;5.052;2023-08-06T07:24:11;6.40;;;2.65;;
23115;SDS011;11727;52.134;5.052;2023-08-06T07:26:37;4.63;;;2.25;;
23115;SDS011;11727;52.134;5.052;2023-08-06T07:29:03;4.57;;;2.72;;
23115;SDS011;11727;52.134;5.052;2023-08-06T07:31:29;3.75;;;2.50;;
23115;SDS011;11727;52.134;5.052;2023-08-06T07:33:54;3.60;;;2.30;;
23115;SDS011;11727;52.134;5.052;2023-08-06T07:36:20;5.18;;;2.72;;
23115;SDS011;11727;52.134;5.052;2023-08-06T07:38:45;4.78;;;2.67;;
23115;SDS011;11727;52.134;5.052;2023-08-06T07:41:12;4.60;;;2.67;;
23115;SDS011;11727;52.134;5.052;2023-08-06T07:43:38;5.80;;;2.78;;
23115;SDS011;11727;52.134;5.052;2023-08-06T07:46:03;5.50;;;2.72;;
23115;SDS011;11727;52.134;5.052;2023-08-06T07:48:29;6.93;;;3.00;;
23115;SDS011;11727;52.134;5.052;2023-08-06T07:50:55;3.70;;;2.85;;
23115;SDS011;11727;52.134;5.052;2023-08-06T07:53:21;6.53;;;3.28;;
23115;SDS011;11727;52.134;5.052;2023-08-06T07:55:49;6.20;;;3.10;;
23115;SDS011;11727;52.134;5.052;2023-08-06T07:58:16;4.80;;;2.80;;
23115;SDS011;11727;52.134;5.052;2023-08-06T08:00:41;5.18;;;2.88;;
23115;SDS011;11727;52.134;5.052;2023-08-06T08:03:10;8.25;;;3.75;;
23115;SDS011;11727;52.134;5.052;2023-08-06T08:05:38;6.13;;;2.95;;
23115;SDS011;11727;52.134;5.052;2023-08-06T08:08:04;6.30;;;3.97;;
23115;SDS011;11727;52.134;5.052;2023-08-06T08:10:30;6.85;;;3.95;;
23115;SDS011;11727;52.134;5.052;2023-08-06T08:12:56;9.20;;;3.70;;
23115;SDS011;11727;52.134;5.052;2023-08-06T08:15:22;9.00;;;4.38;;
23115;SDS011;11727;52.134;5.052;2023-08-06T08:17:48;9.32;;;4.18;;
23115;SDS011;11727;52.134;5.052;2023-08-06T08:20:14;6.88;;;4.07;;
23115;SDS011;11727;52.134;5.052;2023-08-06T08:22:41;5.68;;;3.17;;
23115;SDS011;11727;52.134;5.052;2023-08-06T08:25:06;6.60;;;3.95;;
23115;SDS011;11727;52.134;5.052;2023-08-06T08:27:32;6.15;;;3.35;;
23115;SDS011;11727;52.134;5.052;2023-08-06T08:29:58;5.22;;;3.15;;
23115;SDS011;11727;52.134;5.052;2023-08-06T08:32:23;5.93;;;3.60;;
23115;SDS011;11727;52.134;5.052;2023-08-06T08:34:49;8.43;;;3.90;;
23115;SDS011;11727;52.134;5.052;2023-08-06T08:37:15;6.35;;;2.83;;
23115;SDS011;11727;52.134;5.052;2023-08-06T08:39:40;5.30;;;2.78;;
23115;SDS011;11727;52.134;5.052;2023-08-06T08:42:06;4.75;;;2.38;;
23115;SDS011;11727;52.134;5.052;2023-08-06T08:44:32;5.30;;;2.78;;
23115;SDS011;11727;52.134;5.052;2023-08-06T08:46:59;7.80;;;2.88;;
23115;SDS011;11727;52.134;5.052;2023-08-06T08:49:24;6.30;;;3.05;;
23115;SDS011;11727;52.134;5.052;2023-08-06T08:54:18;5.47;;;2.50;;
23115;SDS011;11727;52.134;5.052;2023-08-06T08:56:47;6.10;;;2.47;;
23115;SDS011;11727;52.134;5.052;2023-08-06T08:59:13;10.27;;;2.72;;
23115;SDS011;11727;52.134;5.052;2023-08-06T09:01:39;6.93;;;2.95;;
23115;SDS011;11727;52.134;5.052;2023-08-06T09:04:07;4.95;;;1.88;;
23115;SDS011;11727;52.134;5.052;2023-08-06T09:06:34;7.07;;;2.60;;
23115;SDS011;11727;52.134;5.052;2023-08-06T09:09:09;5.50;;;2.50;;
23115;SDS011;11727;52.134;5.052;2023-08-06T09:11:44;6.10;;;2.55;;
23115;SDS011;11727;52.134;5.052;2023-08-06T09:14:11;7.60;;;2.70;;
23115;SDS011;11727;52.134;5.052;2023-08-06T09:16:37;5.38;;;2.40;;
23115;SDS011;11727;52.134;5.052;2023-08-06T09:19:06;4.97;;;2.70;;
23115;SDS011;11727;52.134;5.052;2023-08-06T09:21:37;4.22;;;3.03;;
23115;SDS011;11727;52.134;5.052;2023-08-06T09:24:07;6.10;;;2.50;;
23115;SDS011;11727;52.134;5.052;2023-08-06T09:26:44;5.50;;;2.00;;
23115;SDS011;11727;52.134;5.052;2023-08-06T09:29:10;6.22;;;2.55;;
23115;SDS011;11727;52.134;5.052;2023-08-06T09:31:43;8.13;;;2.35;;
23115;SDS011;11727;52.134;5.052;2023-08-06T09:36:45;6.63;;;1.90;;
23115;SDS011;11727;52.134;5.052;2023-08-06T09:39:12;9.80;;;2.80;;
23115;SDS011;11727;52.134;5.052;2023-08-06T09:44:11;7.25;;;2.70;;
23115;SDS011;11727;52.134;5.052;2023-08-06T09:46:40;5.82;;;1.98;;
23115;SDS011;11727;52.134;5.052;2023-08-06T09:49:11;4.60;;;2.20;;
23115;SDS011;11727;52.134;5.052;2023-08-06T09:51:37;4.10;;;2.38;;
23115;SDS011;11727;52.134;5.052;2023-08-06T09:54:04;6.63;;;2.17;;
23115;SDS011;11727;52.134;5.052;2023-08-06T09:56:32;3.78;;;2.03;;
23115;SDS011;11727;52.134;5.052;2023-08-06T09:59:04;7.82;;;2.85;;
23115;SDS011;11727;52.134;5.052;2023-08-06T10:01:32;4.75;;;2.53;;
23115;SDS011;11727;52.134;5.052;2023-08-06T10:04:04;5.97;;;2.30;;
23115;SDS011;11727;52.134;5.052;2023-08-06T10:06:33;5.70;;;2.83;;
23115;SDS011;11727;52.134;5.052;2023-08-06T10:09:03;7.15;;;2.15;;
23115;SDS011;11727;52.134;5.052;2023-08-06T10:11:29;5.55;;;2.38;;
23115;SDS011;11727;52.134;5.052;2023-08-06T10:14:02;5.50;;;2.28;;
23115;SDS011;11727;52.134;5.052;2023-08-06T10:16:35;6.97;;;2.20;;
23115;SDS011;11727;52.134;5.052;2023-08-06T10:19:03;5.18;;;1.67;;
23115;SDS011;11727;52.134;5.052;2023-08-06T10:21:33;5.10;;;1.75;;
23115;SDS011;11727;52.134;5.052;2023-08-06T10:23:58;3.10;;;1.50;;
23115;SDS011;11727;52.134;5.052;2023-08-06T10:26:30;2.97;;;1.00;;
23115;SDS011;11727;52.134;5.052;2023-08-06T10:28:56;4.03;;;1.17;;
23115;SDS011;11727;52.134;5.052;2023-08-06T10:37:23;1.38;;;0.70;;
23115;SDS011;11727;52.134;5.052;2023-08-06T10:40:02;2.17;;;1.00;;
23115;SDS011;11727;52.134;5.052;2023-08-06T10:42:29;2.53;;;1.23;;
23115;SDS011;11727;52.134;5.052;2023-08-06T10:47:43;2.63;;;0.90;;
23115;SDS011;11727;52.134;5.052;2023-08-06T10:50:16;2.20;;;1.02;;
23115;SDS011;11727;52.134;5.052;2023-08-06T10:52:45;5.45;;;0.80;;
23115;SDS011;11727;52.134;5.052;2023-08-06T10:55:12;2.80;;;1.20;;
23115;SDS011;11727;52.134;5.052;2023-08-06T10:57:38;3.15;;;1.10;;
23115;SDS011;11727;52.134;5.052;2023-08-06T11:00:04;3.38;;;1.50;;
23115;SDS011;11727;52.134;5.052;2023-08-06T11:02:38;4.32;;;0.70;;
23115;SDS011;11727;52.134;5.052;2023-08-06T11:05:06;2.25;;;0.85;;
23115;SDS011;11727;52.134;5.052;2023-08-06T11:07:35;1.67;;;0.80;;
23115;SDS011;11727;52.134;5.052;2023-08-06T11:10:04;2.53;;;0.60;;
23115;SDS011;11727;52.134;5.052;2023-08-06T11:12:35;3.95;;;0.88;;
23115;SDS011;11727;52.134;5.052;2023-08-06T11:15:01;4.03;;;0.80;;
23115;SDS011;11727;52.134;5.052;2023-08-06T11:19:54;2.03;;;0.70;;
23115;SDS011;11727;52.134;5.052;2023-08-06T11:22:21;4.95;;;1.05;;
23115;SDS011;11727;52.134;5.052;2023-08-06T11:24:47;2.42;;;1.08;;
23115;SDS011;11727;52.134;5.052;2023-08-06T11:27:14;4.15;;;0.90;;
23115;SDS011;11727;52.134;5.052;2023-08-06T11:29:41;2.80;;;0.88;;
23115;SDS011;11727;52.134;5.052;2023-08-06T11:32:08;3.05;;;1.00;;
23115;SDS011;11727;52.134;5.052;2023-08-06T11:34:34;2.08;;;0.77;;
23115;SDS011;11727;52.134;5.052;2023-08-06T11:37:00;4.18;;;1.08;;
23115;SDS011;11727;52.134;5.052;2023-08-06T11:39:29;4.93;;;0.88;;
23115;SDS011;11727;52.134;5.052;2023-08-06T11:41:55;2.65;;;0.90;;
23115;SDS011;11727;52.134;5.052;2023-08-06T11:44:21;2.08;;;0.80;;
23115;SDS011;11727;52.134;5.052;2023-08-06T11:46:54;2.07;;;0.80;;
23115;SDS011;11727;52.134;5.052;2023-08-06T11:49:21;2.88;;;1.10;;
23115;SDS011;11727;52.134;5.052;2023-08-06T11:52:22;2.13;;;1.10;;
23115;SDS011;11727;52.134;5.052;2023-08-06T11:55:02;3.55;;;0.90;;
23115;SDS011;11727;52.134;5.052;2023-08-06T11:57:33;3.28;;;0.82;;
23115;SDS011;11727;52.134;5.052;2023-08-06T12:00:05;2.53;;;1.10;;
23115;SDS011;11727;52.134;5.052;2023-08-06T12:02:35;2.95;;;0.90;;
23115;SDS011;11727;52.134;5.052;2023-08-06T12:05:04;1.25;;;0.50;;
23115;SDS011;11727;52.134;5.052;2023-08-06T12:07:44;3.60;;;0.95;;
23115;SDS011;11727;52.134;5.052;2023-08-06T12:10:11;2.33;;;0.60;;
23115;SDS011;11727;52.134;5.052;2023-08-06T12:12:38;1.42;;;0.60;;
23115;SDS011;11727;52.134;5.052;2023-08-06T12:15:04;1.20;;;0.50;;
23115;SDS011;11727;52.134;5.052;2023-08-06T12:17:31;2.40;;;0.80;;
23115;SDS011;11727;52.134;5.052;2023-08-06T12:19:57;3.95;;;0.80;;
23115;SDS011;11727;52.134;5.052;2023-08-06T12:22:23;1.98;;;0.80;;
23115;SDS011;11727;52.134;5.052;2023-08-06T12:24:49;3.97;;;0.65;;
23115;SDS011;11727;52.134;5.052;2023-08-06T12:27:15;1.50;;;0.90;;
23115;SDS011;11727;52.134;5.052;2023-08-06T12:29:44;2.08;;;0.98;;
23115;SDS011;11727;52.134;5.052;2023-08-06T12:32:12;5.43;;;0.88;;
23115;SDS011;11727;52.134;5.052;2023-08-06T12:34:39;4.13;;;0.93;;
23115;SDS011;11727;52.134;5.052;2023-08-06T12:37:06;2.30;;;0.70;;
23115;SDS011;11727;52.134;5.052;2023-08-06T12:39:34;1.55;;;0.77;;
23115;SDS011;11727;52.134;5.052;2023-08-06T12:42:01;1.10;;;0.50;;
23115;SDS011;11727;52.134;5.052;2023-08-06T12:44:27;3.22;;;1.10;;
23115;SDS011;11727;52.134;5.052;2023-08-06T12:46:52;3.65;;;0.73;;
23115;SDS011;11727;52.134;5.052;2023-08-06T12:49:19;1.92;;;0.90;;
23115;SDS011;11727;52.134;5.052;2023-08-06T12:51:46;3.55;;;1.00;;
23115;SDS011;11727;52.134;5.052;2023-08-06T12:54:12;2.65;;;0.65;;
23115;SDS011;11727;52.134;5.052;2023-08-06T12:56:37;2.22;;;0.65;;
23115;SDS011;11727;52.134;5.052;2023-08-06T12:59:03;2.78;;;0.93;;
23115;SDS011;11727;52.134;5.052;2023-08-06T13:01:29;2.90;;;0.80;;
23115;SDS011;11727;52.134;5.052;2023-08-06T13:03:54;1.30;;;0.50;;
23115;SDS011;11727;52.134;5.052;2023-08-06T13:06:20;3.50;;;0.88;;
23115;SDS011;11727;52.134;5.052;2023-08-06T13:08:45;1.10;;;0.70;;
23115;SDS011;11727;52.134;5.052;2023-08-06T13:11:11;0.93;;;0.60;;
23115;SDS011;11727;52.134;5.052;2023-08-06T13:13:37;2.88;;;0.80;;
23115;SDS011;11727;52.134;5.052;2023-08-06T13:16:02;4.30;;;0.80;;
23115;SDS011;11727;52.134;5.052;2023-08-06T13:18:28;3.20;;;0.77;;
23115;SDS011;11727;52.134;5.052;2023-08-06T13:20:54;1.63;;;0.82;;
23115;SDS011;11727;52.134;5.052;2023-08-06T13:23:20;2.17;;;0.77;;
23115;SDS011;11727;52.134;5.052;2023-08-06T13:25:46;2.05;;;0.93;;
23115;SDS011;11727;52.134;5.052;2023-08-06T13:28:11;3.65;;;0.70;;
23115;SDS011;11727;52.134;5.052;2023-08-06T13:30:38;2.33;;;0.85;;
23115;SDS011;11727;52.134;5.052;2023-08-06T13:33:08;2.35;;;0.80;;
23115;SDS011;11727;52.134;5.052;2023-08-06T13:35:34;2.58;;;0.85;;
23115;SDS011;11727;52.134;5.052;2023-08-06T13:38:00;4.68;;;1.30;;
23115;SDS011;11727;52.134;5.052;2023-08-06T13:40:28;2.15;;;0.85;;
23115;SDS011;11727;52.134;5.052;2023-08-06T13:42:55;2.20;;;0.60;;
23115;SDS011;11727;52.134;5.052;2023-08-06T13:45:20;4.53;;;0.90;;
23115;SDS011;11727;52.134;5.052;2023-08-06T13:47:46;3.13;;;0.65;;
23115;SDS011;11727;52.134;5.052;2023-08-06T13:50:12;2.03;;;0.80;;
23115;SDS011;11727;52.134;5.052;2023-08-06T13:52:38;5.30;;;0.88;;
23115;SDS011;11727;52.134;5.052;2023-08-06T13:55:04;2.13;;;0.77;;
23115;SDS011;11727;52.134;5.052;2023-08-06T13:57:30;1.10;;;0.52;;
23115;SDS011;11727;52.134;5.052;2023-08-06T13:59:56;2.35;;;0.80;;
23115;SDS011;11727;52.134;5.052;2023-08-06T14:02:22;4.57;;;0.70;;
23115;SDS011;11727;52.134;5.052;2023-08-06T14:04:47;4.28;;;0.80;;
23115;SDS011;11727;52.134;5.052;2023-08-06T14:07:13;2.08;;;0.70;;
23115;SDS011;11727;52.134;5.052;2023-08-06T14:09:39;1.85;;;1.00;;
23115;SDS011;11727;52.134;5.052;2023-08-06T14:12:05;2.63;;;0.90;;
23115;SDS011;11727;52.134;5.052;2023-08-06T14:14:31;2.30;;;1.17;;
23115;SDS011;11727;52.134;5.052;2023-08-06T14:16:57;2.72;;;0.65;;
23115;SDS011;11727;52.134;5.052;2023-08-06T14:19:22;1.30;;;0.70;;
23115;SDS011;11727;52.134;5.052;2023-08-06T14:21:49;3.92;;;1.05;;
23115;SDS011;11727;52.134;5.052;2023-08-06T14:24:14;3.13;;;1.15;;
23115;SDS011;11727;52.134;5.052;2023-08-06T14:26:40;2.78;;;0.68;;
23115;SDS011;11727;52.134;5.052;2023-08-06T14:29:06;2.28;;;0.70;;
23115;SDS011;11727;52.134;5.052;2023-08-06T14:31:31;2.33;;;0.82;;
23115;SDS011;11727;52.134;5.052;2023-08-06T14:33:57;4.05;;;0.85;;
23115;SDS011;11727;52.134;5.052;2023-08-06T14:36:23;7.72;;;0.60;;
23115;SDS011;11727;52.134;5.052;2023-08-06T14:38:48;1.70;;;0.57;;
23115;SDS011;11727;52.134;5.052;2023-08-06T14:41:14;4.15;;;0.90;;
23115;SDS011;11727;52.134;5.052;2023-08-06T14:43:40;2.65;;;0.73;;
23115;SDS011;11727;52.134;5.052;2023-08-06T14:46:05;2.13;;;0.30;;
23115;SDS011;11727;52.134;5.052;2023-08-06T14:48:31;2.90;;;0.60;;
23115;SDS011;11727;52.134;5.052;2023-08-06T14:50:57;2.33;;;0.40;;
23115;SDS011;11727;52.134;5.052;2023-08-06T14:53:22;7.20;;;0.60;;
23115;SDS011;11727;52.134;5.052;2023-08-06T14:55:48;2.47;;;0.45;;
23115;SDS011;11727;52.134;5.052;2023-08-06T14:58:14;5.28;;;0.98;;
23115;SDS011;11727;52.134;5.052;2023-08-06T15:00:39;5.18;;;0.50;;
23115;SDS011;11727;52.134;5.052;2023-08-06T15:03:05;5.15;;;1.05;;
23115;SDS011;11727;52.134;5.052;2023-08-06T15:05:30;6.75;;;0.45;;
23115;SDS011;11727;52.134;5.052;2023-08-06T15:07:56;8.85;;;1.08;;
23115;SDS011;11727;52.134;5.052;2023-08-06T15:10:22;1.88;;;0.55;;
23115;SDS011;11727;52.134;5.052;2023-08-06T15:12:47;5.40;;;0.75;;